sensor_id;sensor_type;location;lat;lon;timestamp;temperature;humidity
21563;DHT22;10942;47.894;11.424;2023-01-15T00:01:00;5.70;99.90
21563;DHT22;10942;47.894;11.424;2023-01-15T00:03:26;5.70;99.90
21563;DHT22;10942;47.894;11.424;2023-01-15T00:05:52;5.60;99.90
21563;DHT22;10942;47.894;11.424;2023-01-15T00:08:18;5.60;99.90
21563;DHT22;10942;47.894;11.424;2023-01-15T00:10:44;5.70;99.90
21563;DHT22;10942;47.894;11.424;2023-01-15T00:13:09;5.70;99.90
21563;DHT22;10942;47.894;11.424;2023-01-15T00:15:35;5.70;99.90
21563;DHT22;10942;47.894;11.424;2023-01-15T00:18:01;5.60;99.90
21563;DHT22;10942;47.894;11.424;2023-01-15T00:20:27;5.60;99.90
21563;DHT22;10942;47.894;11.424;2023-01-15T00:22:53;5.70;99.90
21563;DHT22;10942;47.894;11.424;2023-01-15T00:25:19;5.70;99.90
21563;DHT22;10942;47.894;11.424;2023-01-15T00:28:14;5.60;99.90
21563;DHT22;10942;47.894;11.424;2023-01-15T00:30:40;5.60;99.90
21563;DHT22;10942;47.894;11.424;2023-01-15T00:33:07;5.70;99.90
21563;DHT22;10942;47.894;11.424;2023-01-15T00:35:33;5.60;99.90
21563;DHT22;10942;47.894;11.424;2023-01-15T00:37:58;5.60;99.90
21563;DHT22;10942;47.894;11.424;2023-01-15T00:40:24;5.60;99.90
21563;DHT22;10942;47.894;11.424;2023-01-15T00:42:50;5.60;99.90
21563;DHT22;10942;47.894;11.424;2023-01-15T00:45:16;5.70;99.90
21563;DHT22;10942;47.894;11.424;2023-01-15T00:47:43;5.50;99.90
21563;DHT22;10942;47.894;11.424;2023-01-15T00:50:13;5.60;99.90
21563;DHT22;10942;47.894;11.424;2023-01-15T00:52:40;5.50;99.90
21563;DHT22;10942;47.894;11.424;2023-01-15T00:55:06;5.70;99.90
21563;DHT22;10942;47.894;11.424;2023-01-15T00:57:33;5.60;99.90
21563;DHT22;10942;47.894;11.424;2023-01-15T00:59:59;5.50;99.90
21563;DHT22;10942;47.894;11.424;2023-01-15T01:02:24;5.50;99.90
21563;DHT22;10942;47.894;11.424;2023-01-15T01:04:50;5.50;99.90
21563;DHT22;10942;47.894;11.424;2023-01-15T01:07:16;5.60;99.90
21563;DHT22;10942;47.894;11.424;2023-01-15T01:09:43;5.60;99.90
21563;DHT22;10942;47.894;11.424;2023-01-15T01:12:09;5.70;99.90
21563;DHT22;10942;47.894;11.424;2023-01-15T01:14:36;5.70;99.90
21563;DHT22;10942;47.894;11.424;2023-01-15T01:17:02;5.70;99.90
21563;DHT22;10942;47.894;11.424;2023-01-15T01:19:28;5.60;99.90
21563;DHT22;10942;47.894;11.424;2023-01-15T01:21:54;5.60;99.90
21563;DHT22;10942;47.894;11.424;2023-01-15T01:24:22;5.60;99.90
21563;DHT22;10942;47.894;11.424;2023-01-15T01:26:49;5.50;99.90
21563;DHT22;10942;47.894;11.424;2023-01-15T01:29:18;5.60;99.90
21563;DHT22;10942;47.894;11.424;2023-01-15T01:31:45;5.50;99.90
21563;DHT22;10942;47.894;11.424;2023-01-15T01:34:12;5.50;99.90
21563;DHT22;10942;47.894;11.424;2023-01-15T01:36:40;5.50;99.90
21563;DHT22;10942;47.894;11.424;2023-01-15T01:39:08;5.50;99.90
21563;DHT22;10942;47.894;11.424;2023-01-15T01:41:37;5.50;99.90
21563;DHT22;10942;47.894;11.424;2023-01-15T01:44:57;5.50;99.90
21563;DHT22;10942;47.894;11.424;2023-01-15T01:46:53;5.60;99.90
21563;DHT22;10942;47.894;11.424;2023-01-15T01:49:20;5.60;99.90
21563;DHT22;10942;47.894;11.424;2023-01-15T01:51:55;5.60;99.90
21563;DHT22;10942;47.894;11.424;2023-01-15T01:54:24;5.60;99.90
21563;DHT22;10942;47.894;11.424;2023-01-15T01:56:51;5.70;99.90
21563;DHT22;10942;47.894;11.424;2023-01-15T01:59:19;5.70;99.90
21563;DHT22;10942;47.894;11.424;2023-01-15T02:01:47;5.70;99.90
21563;DHT22;10942;47.894;11.424;2023-01-15T02:04:13;5.70;99.90
21563;DHT22;10942;47.894;11.424;2023-01-15T02:06:41;5.60;99.90
21563;DHT22;10942;47.894;11.424;2023-01-15T02:09:07;5.70;99.90
21563;DHT22;10942;47.894;11.424;2023-01-15T02:11:34;5.70;99.90
21563;DHT22;10942;47.894;11.424;2023-01-15T02:16:42;5.60;99.90
21563;DHT22;10942;47.894;11.424;2023-01-15T02:27:46;5.60;99.90
21563;DHT22;10942;47.894;11.424;2023-01-15T02:30:38;5.50;99.90
21563;DHT22;10942;47.894;11.424;2023-01-15T02:33:13;5.60;99.90
21563;DHT22;10942;47.894;11.424;2023-01-15T02:38:14;5.60;99.90
21563;DHT22;10942;47.894;11.424;2023-01-15T02:40:45;5.60;99.90
21563;DHT22;10942;47.894;11.424;2023-01-15T02:43:12;5.50;99.90
21563;DHT22;10942;47.894;11.424;2023-01-15T02:45:41;5.50;99.90
21563;DHT22;10942;47.894;11.424;2023-01-15T02:48:13;5.50;99.90
21563;DHT22;10942;47.894;11.424;2023-01-15T02:50:44;5.50;99.90
21563;DHT22;10942;47.894;11.424;2023-01-15T02:53:17;5.50;99.90
21563;DHT22;10942;47.894;11.424;2023-01-15T02:55:48;5.50;99.90
21563;DHT22;10942;47.894;11.424;2023-01-15T02:58:24;5.50;99.90
21563;DHT22;10942;47.894;11.424;2023-01-15T03:00:56;5.40;99.90
21563;DHT22;10942;47.894;11.424;2023-01-15T03:03:35;5.40;99.90
21563;DHT22;10942;47.894;11.424;2023-01-15T03:06:18;5.40;99.90
21563;DHT22;10942;47.894;11.424;2023-01-15T03:08:46;5.40;99.90
21563;DHT22;10942;47.894;11.424;2023-01-15T03:11:15;5.40;99.90
21563;DHT22;10942;47.894;11.424;2023-01-15T03:16:36;5.40;99.90
21563;DHT22;10942;47.894;11.424;2023-01-15T03:22:09;5.40;99.90
21563;DHT22;10942;47.894;11.424;2023-01-15T03:24:51;5.40;99.90
21563;DHT22;10942;47.894;11.424;2023-01-15T03:27:19;5.40;99.90
21563;DHT22;10942;47.894;11.424;2023-01-15T03:30:05;5.40;99.90
21563;DHT22;10942;47.894;11.424;2023-01-15T03:32:31;5.40;99.90
21563;DHT22;10942;47.894;11.424;2023-01-15T03:34:57;5.40;99.90
21563;DHT22;10942;47.894;11.424;2023-01-15T03:37:26;5.40;99.90
21563;DHT22;10942;47.894;11.424;2023-01-15T03:39:55;5.40;99.90
21563;DHT22;10942;47.894;11.424;2023-01-15T03:45:25;5.40;99.90
21563;DHT22;10942;47.894;11.424;2023-01-15T03:48:06;5.40;99.90
21563;DHT22;10942;47.894;11.424;2023-01-15T03:50:49;5.30;99.90
21563;DHT22;10942;47.894;11.424;2023-01-15T03:53:18;5.30;99.90
21563;DHT22;10942;47.894;11.424;2023-01-15T03:55:52;5.40;99.90
21563;DHT22;10942;47.894;11.424;2023-01-15T03:58:37;5.40;99.90
21563;DHT22;10942;47.894;11.424;2023-01-15T04:01:10;5.30;99.90
21563;DHT22;10942;47.894;11.424;2023-01-15T04:03:38;5.40;99.90
21563;DHT22;10942;47.894;11.424;2023-01-15T04:06:06;5.40;99.90
21563;DHT22;10942;47.894;11.424;2023-01-15T04:08:37;5.40;99.90
21563;DHT22;10942;47.894;11.424;2023-01-15T04:11:04;5.30;99.90
21563;DHT22;10942;47.894;11.424;2023-01-15T04:13:36;5.40;99.90
21563;DHT22;10942;47.894;11.424;2023-01-15T04:16:03;5.30;99.90
21563;DHT22;10942;47.894;11.424;2023-01-15T04:18:29;5.40;99.90
21563;DHT22;10942;47.894;11.424;2023-01-15T04:20:56;5.40;99.90
21563;DHT22;10942;47.894;11.424;2023-01-15T04:23:22;5.40;99.90
21563;DHT22;10942;47.894;11.424;2023-01-15T04:25:48;5.50;99.90
21563;DHT22;10942;47.894;11.424;2023-01-15T04:28:14;5.50;99.90
21563;DHT22;10942;47.894;11.424;2023-01-15T04:30:40;5.50;99.90
21563;DHT22;10942;47.894;11.424;2023-01-15T04:33:07;5.50;99.90
21563;DHT22;10942;47.894;11.424;2023-01-15T04:35:33;5.50;99.90
21563;DHT22;10942;47.894;11.424;2023-01-15T04:38:00;5.50;99.90
21563;DHT22;10942;47.894;11.424;2023-01-15T04:40:26;5.50;99.90
21563;DHT22;10942;47.894;11.424;2023-01-15T04:43:11;5.50;99.90
21563;DHT22;10942;47.894;11.424;2023-01-15T04:45:56;5.50;99.90
21563;DHT22;10942;47.894;11.424;2023-01-15T04:48:22;5.50;99.90
21563;DHT22;10942;47.894;11.424;2023-01-15T04:50:48;5.60;99.90
21563;DHT22;10942;47.894;11.424;2023-01-15T04:53:13;5.50;99.90
21563;DHT22;10942;47.894;11.424;2023-01-15T04:55:39;5.50;99.90
21563;DHT22;10942;47.894;11.424;2023-01-15T04:58:05;5.50;99.90
21563;DHT22;10942;47.894;11.424;2023-01-15T05:00:31;5.50;99.90
21563;DHT22;10942;47.894;11.424;2023-01-15T05:02:56;5.50;99.90
21563;DHT22;10942;47.894;11.424;2023-01-15T05:05:22;5.50;99.90
21563;DHT22;10942;47.894;11.424;2023-01-15T05:07:48;5.50;99.90
21563;DHT22;10942;47.894;11.424;2023-01-15T05:10:14;5.50;99.90
21563;DHT22;10942;47.894;11.424;2023-01-15T05:12:39;5.50;99.90
21563;DHT22;10942;47.894;11.424;2023-01-15T05:15:05;5.50;99.90
21563;DHT22;10942;47.894;11.424;2023-01-15T05:17:32;5.40;99.90
21563;DHT22;10942;47.894;11.424;2023-01-15T05:19:58;5.50;99.90
21563;DHT22;10942;47.894;11.424;2023-01-15T05:22:24;5.50;99.90
21563;DHT22;10942;47.894;11.424;2023-01-15T05:24:50;5.50;99.90
21563;DHT22;10942;47.894;11.424;2023-01-15T05:27:16;5.50;99.90
21563;DHT22;10942;47.894;11.424;2023-01-15T05:29:41;5.50;99.90
21563;DHT22;10942;47.894;11.424;2023-01-15T05:32:07;5.50;99.90
21563;DHT22;10942;47.894;11.424;2023-01-15T05:34:33;5.40;99.90
21563;DHT22;10942;47.894;11.424;2023-01-15T05:36:58;5.40;99.90
21563;DHT22;10942;47.894;11.424;2023-01-15T05:39:24;5.40;99.90
21563;DHT22;10942;47.894;11.424;2023-01-15T05:41:50;5.40;99.90
21563;DHT22;10942;47.894;11.424;2023-01-15T05:44:26;5.40;99.90
21563;DHT22;10942;47.894;11.424;2023-01-15T05:46:54;5.40;99.90
21563;DHT22;10942;47.894;11.424;2023-01-15T05:49:23;5.30;99.90
21563;DHT22;10942;47.894;11.424;2023-01-15T05:51:51;5.30;99.90
21563;DHT22;10942;47.894;11.424;2023-01-15T05:54:19;5.30;99.90
21563;DHT22;10942;47.894;11.424;2023-01-15T05:56:46;5.40;99.90
21563;DHT22;10942;47.894;11.424;2023-01-15T05:59:16;5.40;99.90
21563;DHT22;10942;47.894;11.424;2023-01-15T06:01:42;5.40;99.90
21563;DHT22;10942;47.894;11.424;2023-01-15T06:04:09;5.40;99.90
21563;DHT22;10942;47.894;11.424;2023-01-15T06:06:35;5.40;99.90
21563;DHT22;10942;47.894;11.424;2023-01-15T06:09:03;5.50;99.90
21563;DHT22;10942;47.894;11.424;2023-01-15T06:11:28;5.50;99.90
21563;DHT22;10942;47.894;11.424;2023-01-15T06:13:54;5.40;99.90
21563;DHT22;10942;47.894;11.424;2023-01-15T06:16:20;5.50;99.90
21563;DHT22;10942;47.894;11.424;2023-01-15T06:18:46;5.50;99.90
21563;DHT22;10942;47.894;11.424;2023-01-15T06:21:13;5.50;99.90
21563;DHT22;10942;47.894;11.424;2023-01-15T06:23:40;5.50;99.90
21563;DHT22;10942;47.894;11.424;2023-01-15T06:26:12;5.60;99.90
21563;DHT22;10942;47.894;11.424;2023-01-15T06:28:38;5.50;99.90
21563;DHT22;10942;47.894;11.424;2023-01-15T06:31:09;5.50;99.90
21563;DHT22;10942;47.894;11.424;2023-01-15T06:33:35;5.50;99.90
21563;DHT22;10942;47.894;11.424;2023-01-15T06:36:06;5.60;99.90
21563;DHT22;10942;47.894;11.424;2023-01-15T06:38:32;5.50;99.90
21563;DHT22;10942;47.894;11.424;2023-01-15T06:41:00;5.60;99.90
21563;DHT22;10942;47.894;11.424;2023-01-15T06:43:26;5.60;99.90
21563;DHT22;10942;47.894;11.424;2023-01-15T06:46:10;5.60;99.90
21563;DHT22;10942;47.894;11.424;2023-01-15T06:48:55;5.60;99.90
21563;DHT22;10942;47.894;11.424;2023-01-15T06:51:20;5.70;99.90
21563;DHT22;10942;47.894;11.424;2023-01-15T06:53:46;5.60;99.90
21563;DHT22;10942;47.894;11.424;2023-01-15T06:56:13;5.60;99.90
21563;DHT22;10942;47.894;11.424;2023-01-15T06:58:42;5.60;99.90
21563;DHT22;10942;47.894;11.424;2023-01-15T07:01:10;5.70;99.90
21563;DHT22;10942;47.894;11.424;2023-01-15T07:03:36;5.60;99.90
21563;DHT22;10942;47.894;11.424;2023-01-15T07:06:10;5.60;99.90
21563;DHT22;10942;47.894;11.424;2023-01-15T07:08:36;5.70;99.90
21563;DHT22;10942;47.894;11.424;2023-01-15T07:11:07;5.70;99.90
21563;DHT22;10942;47.894;11.424;2023-01-15T07:13:33;5.80;99.90
21563;DHT22;10942;47.894;11.424;2023-01-15T07:16:00;5.70;99.90
21563;DHT22;10942;47.894;11.424;2023-01-15T07:18:28;5.70;99.90
21563;DHT22;10942;47.894;11.424;2023-01-15T07:20:55;5.70;99.90
21563;DHT22;10942;47.894;11.424;2023-01-15T07:23:25;5.70;99.90
21563;DHT22;10942;47.894;11.424;2023-01-15T07:25:52;5.80;99.90
21563;DHT22;10942;47.894;11.424;2023-01-15T07:28:18;5.80;99.90
21563;DHT22;10942;47.894;11.424;2023-01-15T07:30:44;5.90;99.90
21563;DHT22;10942;47.894;11.424;2023-01-15T07:33:10;6.00;99.90
21563;DHT22;10942;47.894;11.424;2023-01-15T07:35:37;6.20;99.90
21563;DHT22;10942;47.894;11.424;2023-01-15T07:38:03;6.30;99.90
21563;DHT22;10942;47.894;11.424;2023-01-15T07:40:29;6.50;99.90
21563;DHT22;10942;47.894;11.424;2023-01-15T07:42:54;6.50;99.90
21563;DHT22;10942;47.894;11.424;2023-01-15T07:45:39;6.60;99.90
21563;DHT22;10942;47.894;11.424;2023-01-15T07:48:25;6.70;99.90
21563;DHT22;10942;47.894;11.424;2023-01-15T07:51:10;6.90;99.90
21563;DHT22;10942;47.894;11.424;2023-01-15T07:53:35;7.00;99.90
21563;DHT22;10942;47.894;11.424;2023-01-15T07:56:01;7.10;99.90
21563;DHT22;10942;47.894;11.424;2023-01-15T07:58:27;7.40;99.90
21563;DHT22;10942;47.894;11.424;2023-01-15T08:00:53;7.50;99.90
21563;DHT22;10942;47.894;11.424;2023-01-15T08:03:18;7.70;99.90
21563;DHT22;10942;47.894;11.424;2023-01-15T08:05:44;7.80;99.90
21563;DHT22;10942;47.894;11.424;2023-01-15T08:08:19;7.80;99.90
21563;DHT22;10942;47.894;11.424;2023-01-15T08:10:44;7.90;99.90
21563;DHT22;10942;47.894;11.424;2023-01-15T08:13:29;8.00;99.90
21563;DHT22;10942;47.894;11.424;2023-01-15T08:16:13;8.00;99.90
21563;DHT22;10942;47.894;11.424;2023-01-15T08:18:39;8.10;99.90
21563;DHT22;10942;47.894;11.424;2023-01-15T08:21:05;8.10;99.90
21563;DHT22;10942;47.894;11.424;2023-01-15T08:23:31;8.20;99.90
21563;DHT22;10942;47.894;11.424;2023-01-15T08:26:00;8.20;99.90
21563;DHT22;10942;47.894;11.424;2023-01-15T08:28:26;8.30;99.90
21563;DHT22;10942;47.894;11.424;2023-01-15T08:30:52;8.30;99.90
21563;DHT22;10942;47.894;11.424;2023-01-15T08:33:18;8.30;99.90
21563;DHT22;10942;47.894;11.424;2023-01-15T08:35:44;8.30;99.90
21563;DHT22;10942;47.894;11.424;2023-01-15T08:38:09;8.40;99.90
21563;DHT22;10942;47.894;11.424;2023-01-15T08:40:36;8.30;99.90
21563;DHT22;10942;47.894;11.424;2023-01-15T08:43:21;8.40;99.90
21563;DHT22;10942;47.894;11.424;2023-01-15T08:45:47;8.40;99.90
21563;DHT22;10942;47.894;11.424;2023-01-15T08:48:13;8.30;99.90
21563;DHT22;10942;47.894;11.424;2023-01-15T08:50:39;8.30;99.90
21563;DHT22;10942;47.894;11.424;2023-01-15T08:53:04;8.30;99.90
21563;DHT22;10942;47.894;11.424;2023-01-15T08:55:30;8.30;99.90
21563;DHT22;10942;47.894;11.424;2023-01-15T08:57:57;8.30;99.90
21563;DHT22;10942;47.894;11.424;2023-01-15T09:00:23;8.40;99.90
21563;DHT22;10942;47.894;11.424;2023-01-15T09:02:50;8.40;99.90
21563;DHT22;10942;47.894;11.424;2023-01-15T09:05:16;8.40;99.90
21563;DHT22;10942;47.894;11.424;2023-01-15T09:07:42;8.40;99.90
21563;DHT22;10942;47.894;11.424;2023-01-15T09:10:08;8.30;99.90
21563;DHT22;10942;47.894;11.424;2023-01-15T09:12:33;8.30;99.90
21563;DHT22;10942;47.894;11.424;2023-01-15T09:14:59;8.30;99.90
21563;DHT22;10942;47.894;11.424;2023-01-15T09:17:26;8.30;99.90
21563;DHT22;10942;47.894;11.424;2023-01-15T09:19:52;8.30;99.90
21563;DHT22;10942;47.894;11.424;2023-01-15T09:22:18;8.30;99.90
21563;DHT22;10942;47.894;11.424;2023-01-15T09:24:43;8.40;99.90
21563;DHT22;10942;47.894;11.424;2023-01-15T09:27:11;8.50;99.90
21563;DHT22;10942;47.894;11.424;2023-01-15T09:29:36;8.60;99.90
21563;DHT22;10942;47.894;11.424;2023-01-15T09:32:02;8.80;99.90
21563;DHT22;10942;47.894;11.424;2023-01-15T09:34:29;8.90;99.90
21563;DHT22;10942;47.894;11.424;2023-01-15T09:36:55;9.00;99.90
21563;DHT22;10942;47.894;11.424;2023-01-15T09:39:20;9.20;99.90
21563;DHT22;10942;47.894;11.424;2023-01-15T09:55:51;10.40;99.90
21563;DHT22;10942;47.894;11.424;2023-01-15T09:58:30;10.50;99.90
21563;DHT22;10942;47.894;11.424;2023-01-15T10:00:57;10.50;99.90
21563;DHT22;10942;47.894;11.424;2023-01-15T10:03:42;10.60;99.90
21563;DHT22;10942;47.894;11.424;2023-01-15T10:08:47;10.80;99.90
21563;DHT22;10942;47.894;11.424;2023-01-15T10:14:05;11.10;99.90
21563;DHT22;10942;47.894;11.424;2023-01-15T10:16:33;11.20;99.90
21563;DHT22;10942;47.894;11.424;2023-01-15T10:19:00;11.20;99.90
21563;DHT22;10942;47.894;11.424;2023-01-15T10:21:40;11.30;99.90
21563;DHT22;10942;47.894;11.424;2023-01-15T10:26:37;11.50;99.90
21563;DHT22;10942;47.894;11.424;2023-01-15T10:29:32;11.50;99.90
21563;DHT22;10942;47.894;11.424;2023-01-15T10:35:09;11.50;99.90
21563;DHT22;10942;47.894;11.424;2023-01-15T10:41:39;11.40;99.90
21563;DHT22;10942;47.894;11.424;2023-01-15T10:44:14;11.00;99.90
21563;DHT22;10942;47.894;11.424;2023-01-15T10:46:47;10.40;99.90
21563;DHT22;10942;47.894;11.424;2023-01-15T10:49:16;10.00;99.90
21563;DHT22;10942;47.894;11.424;2023-01-15T10:51:44;9.50;99.90
21563;DHT22;10942;47.894;11.424;2023-01-15T10:54:30;9.00;99.90
21563;DHT22;10942;47.894;11.424;2023-01-15T10:57:10;8.70;99.90
21563;DHT22;10942;47.894;11.424;2023-01-15T10:59:58;8.50;99.90
21563;DHT22;10942;47.894;11.424;2023-01-15T11:05:01;8.30;99.90
21563;DHT22;10942;47.894;11.424;2023-01-15T11:07:42;8.20;99.90
21563;DHT22;10942;47.894;11.424;2023-01-15T11:10:10;8.20;99.90
21563;DHT22;10942;47.894;11.424;2023-01-15T11:12:43;8.00;99.90
21563;DHT22;10942;47.894;11.424;2023-01-15T11:15:27;7.80;99.90
21563;DHT22;10942;47.894;11.424;2023-01-15T11:18:35;7.70;99.90
21563;DHT22;10942;47.894;11.424;2023-01-15T11:21:23;7.60;99.90
21563;DHT22;10942;47.894;11.424;2023-01-15T11:23:49;7.30;99.90
21563;DHT22;10942;47.894;11.424;2023-01-15T11:26:20;7.20;99.90
21563;DHT22;10942;47.894;11.424;2023-01-15T11:28:47;7.20;99.90
21563;DHT22;10942;47.894;11.424;2023-01-15T11:31:14;7.10;99.90
21563;DHT22;10942;47.894;11.424;2023-01-15T11:33:58;6.90;99.90
21563;DHT22;10942;47.894;11.424;2023-01-15T11:36:26;6.90;99.90
21563;DHT22;10942;47.894;11.424;2023-01-15T11:38:52;6.90;99.90
21563;DHT22;10942;47.894;11.424;2023-01-15T11:41:28;6.70;99.90
21563;DHT22;10942;47.894;11.424;2023-01-15T11:44:14;6.70;99.90
21563;DHT22;10942;47.894;11.424;2023-01-15T11:46:58;6.70;99.90
21563;DHT22;10942;47.894;11.424;2023-01-15T11:49:50;6.60;99.90
21563;DHT22;10942;47.894;11.424;2023-01-15T11:52:36;6.50;99.90
21563;DHT22;10942;47.894;11.424;2023-01-15T11:55:10;6.40;99.90
21563;DHT22;10942;47.894;11.424;2023-01-15T11:57:37;6.40;99.90
21563;DHT22;10942;47.894;11.424;2023-01-15T12:00:05;6.30;99.90
21563;DHT22;10942;47.894;11.424;2023-01-15T12:02:38;6.30;99.90
21563;DHT22;10942;47.894;11.424;2023-01-15T12:05:24;6.30;99.90
21563;DHT22;10942;47.894;11.424;2023-01-15T12:07:52;6.30;99.90
21563;DHT22;10942;47.894;11.424;2023-01-15T12:10:31;6.20;99.90
21563;DHT22;10942;47.894;11.424;2023-01-15T12:13:31;6.10;99.90
21563;DHT22;10942;47.894;11.424;2023-01-15T12:24:39;5.90;99.90
21563;DHT22;10942;47.894;11.424;2023-01-15T12:39:01;5.70;99.90
21563;DHT22;10942;47.894;11.424;2023-01-15T12:41:37;5.70;99.90
21563;DHT22;10942;47.894;11.424;2023-01-15T12:47:17;5.70;99.90
21563;DHT22;10942;47.894;11.424;2023-01-15T12:49:47;5.70;99.90
21563;DHT22;10942;47.894;11.424;2023-01-15T12:52:21;5.70;99.90
21563;DHT22;10942;47.894;11.424;2023-01-15T12:55:00;5.80;99.90
21563;DHT22;10942;47.894;11.424;2023-01-15T12:57:33;5.80;99.90
21563;DHT22;10942;47.894;11.424;2023-01-15T13:02:56;5.80;99.90
21563;DHT22;10942;47.894;11.424;2023-01-15T13:05:48;5.80;99.90
21563;DHT22;10942;47.894;11.424;2023-01-15T13:08:26;5.80;99.90
21563;DHT22;10942;47.894;11.424;2023-01-15T13:10:53;5.70;99.90
21563;DHT22;10942;47.894;11.424;2023-01-15T13:13:34;5.70;99.90
21563;DHT22;10942;47.894;11.424;2023-01-15T13:21:21;5.30;99.90
21563;DHT22;10942;47.894;11.424;2023-01-15T13:32:22;4.80;99.90
21563;DHT22;10942;47.894;11.424;2023-01-15T13:34:54;4.70;99.90
21563;DHT22;10942;47.894;11.424;2023-01-15T13:37:26;4.70;99.90
21563;DHT22;10942;47.894;11.424;2023-01-15T13:42:30;4.50;99.90
21563;DHT22;10942;47.894;11.424;2023-01-15T13:44:56;4.50;99.90
21563;DHT22;10942;47.894;11.424;2023-01-15T13:47:28;4.50;99.90
21563;DHT22;10942;47.894;11.424;2023-01-15T13:50:00;4.40;99.90
21563;DHT22;10942;47.894;11.424;2023-01-15T13:52:34;4.50;99.90
21563;DHT22;10942;47.894;11.424;2023-01-15T13:55:19;4.40;99.90
21563;DHT22;10942;47.894;11.424;2023-01-15T13:57:45;4.40;99.90
21563;DHT22;10942;47.894;11.424;2023-01-15T14:02:55;4.50;99.90
21563;DHT22;10942;47.894;11.424;2023-01-15T14:05:34;4.50;99.90
21563;DHT22;10942;47.894;11.424;2023-01-15T14:08:02;4.50;99.90
21563;DHT22;10942;47.894;11.424;2023-01-15T14:10:38;4.60;99.90
21563;DHT22;10942;47.894;11.424;2023-01-15T14:18:59;4.60;99.90
21563;DHT22;10942;47.894;11.424;2023-01-15T14:24:35;4.40;99.90
21563;DHT22;10942;47.894;11.424;2023-01-15T14:33:06;4.60;99.90
21563;DHT22;10942;47.894;11.424;2023-01-15T14:35:36;4.70;99.90
21563;DHT22;10942;47.894;11.424;2023-01-15T14:38:10;4.70;99.90
21563;DHT22;10942;47.894;11.424;2023-01-15T14:40:38;4.70;99.90
21563;DHT22;10942;47.894;11.424;2023-01-15T14:43:18;4.60;99.90
21563;DHT22;10942;47.894;11.424;2023-01-15T14:45:46;4.70;99.90
21563;DHT22;10942;47.894;11.424;2023-01-15T14:50:52;4.50;99.90
21563;DHT22;10942;47.894;11.424;2023-01-15T15:02:04;4.50;99.90
21563;DHT22;10942;47.894;11.424;2023-01-15T15:04:48;4.50;99.90
21563;DHT22;10942;47.894;11.424;2023-01-15T15:07:25;4.40;99.90
21563;DHT22;10942;47.894;11.424;2023-01-15T15:09:57;4.50;99.90
21563;DHT22;10942;47.894;11.424;2023-01-15T15:28:57;4.40;99.90
21563;DHT22;10942;47.894;11.424;2023-01-15T15:31:24;4.30;99.90
21563;DHT22;10942;47.894;11.424;2023-01-15T15:33:52;4.30;99.90
21563;DHT22;10942;47.894;11.424;2023-01-15T15:36:19;4.30;99.90
21563;DHT22;10942;47.894;11.424;2023-01-15T15:38:59;4.30;99.90
21563;DHT22;10942;47.894;11.424;2023-01-15T15:41:30;4.20;99.90
21563;DHT22;10942;47.894;11.424;2023-01-15T15:44:20;4.20;99.90
21563;DHT22;10942;47.894;11.424;2023-01-15T15:47:21;4.20;99.90
21563;DHT22;10942;47.894;11.424;2023-01-15T15:50:17;4.20;99.90
21563;DHT22;10942;47.894;11.424;2023-01-15T15:52:43;4.20;99.90
21563;DHT22;10942;47.894;11.424;2023-01-15T15:55:16;4.20;99.90
21563;DHT22;10942;47.894;11.424;2023-01-15T15:57:48;4.10;99.90
21563;DHT22;10942;47.894;11.424;2023-01-15T16:00:18;4.20;99.90
21563;DHT22;10942;47.894;11.424;2023-01-15T16:02:45;4.00;99.90
21563;DHT22;10942;47.894;11.424;2023-01-15T16:05:29;4.00;99.90
21563;DHT22;10942;47.894;11.424;2023-01-15T16:17:59;3.90;99.90
21563;DHT22;10942;47.894;11.424;2023-01-15T16:20:26;3.60;99.90
21563;DHT22;10942;47.894;11.424;2023-01-15T16:23:03;3.60;99.90
21563;DHT22;10942;47.894;11.424;2023-01-15T16:25:33;3.60;99.90
21563;DHT22;10942;47.894;11.424;2023-01-15T16:28:00;3.50;99.90
21563;DHT22;10942;47.894;11.424;2023-01-15T16:30:28;3.40;99.90
21563;DHT22;10942;47.894;11.424;2023-01-15T16:32:58;3.50;99.90
21563;DHT22;10942;47.894;11.424;2023-01-15T16:35:24;3.50;99.90
21563;DHT22;10942;47.894;11.424;2023-01-15T16:53:59;3.40;99.90
21563;DHT22;10942;47.894;11.424;2023-01-15T16:59:02;3.30;99.90
21563;DHT22;10942;47.894;11.424;2023-01-15T17:01:43;3.40;99.90
21563;DHT22;10942;47.894;11.424;2023-01-15T17:07:00;3.40;99.90
21563;DHT22;10942;47.894;11.424;2023-01-15T17:09:32;3.40;99.90
21563;DHT22;10942;47.894;11.424;2023-01-15T17:12:02;3.40;99.90
21563;DHT22;10942;47.894;11.424;2023-01-15T17:14:31;3.30;99.90
21563;DHT22;10942;47.894;11.424;2023-01-15T17:19:42;3.30;99.90
21563;DHT22;10942;47.894;11.424;2023-01-15T17:22:15;3.30;99.90
21563;DHT22;10942;47.894;11.424;2023-01-15T17:24:56;3.30;99.90
21563;DHT22;10942;47.894;11.424;2023-01-15T17:27:24;3.30;99.90
21563;DHT22;10942;47.894;11.424;2023-01-15T17:29:50;3.20;99.90
21563;DHT22;10942;47.894;11.424;2023-01-15T17:32:30;3.30;99.90
21563;DHT22;10942;47.894;11.424;2023-01-15T17:34:56;3.30;99.90
21563;DHT22;10942;47.894;11.424;2023-01-15T17:37:22;3.30;99.90
21563;DHT22;10942;47.894;11.424;2023-01-15T17:39:48;3.30;99.90
21563;DHT22;10942;47.894;11.424;2023-01-15T17:42:15;3.30;99.90
21563;DHT22;10942;47.894;11.424;2023-01-15T17:44:42;3.30;99.90
21563;DHT22;10942;47.894;11.424;2023-01-15T17:47:08;3.20;99.90
21563;DHT22;10942;47.894;11.424;2023-01-15T17:49:34;3.30;99.90
21563;DHT22;10942;47.894;11.424;2023-01-15T17:52:01;3.20;99.90
21563;DHT22;10942;47.894;11.424;2023-01-15T17:54:28;3.20;99.90
21563;DHT22;10942;47.894;11.424;2023-01-15T17:57:12;3.20;99.90
21563;DHT22;10942;47.894;11.424;2023-01-15T17:59:57;3.20;99.90
21563;DHT22;10942;47.894;11.424;2023-01-15T18:02:42;3.20;99.90
21563;DHT22;10942;47.894;11.424;2023-01-15T18:05:28;3.10;99.90
21563;DHT22;10942;47.894;11.424;2023-01-15T18:08:02;3.10;99.90
21563;DHT22;10942;47.894;11.424;2023-01-15T18:10:28;3.10;99.90
21563;DHT22;10942;47.894;11.424;2023-01-15T18:12:55;3.10;99.90
21563;DHT22;10942;47.894;11.424;2023-01-15T18:17:46;3.20;99.90
21563;DHT22;10942;47.894;11.424;2023-01-15T18:20:13;3.20;99.90
21563;DHT22;10942;47.894;11.424;2023-01-15T18:22:38;3.10;99.90
21563;DHT22;10942;47.894;11.424;2023-01-15T18:25:05;3.20;99.90
21563;DHT22;10942;47.894;11.424;2023-01-15T18:27:32;3.20;99.90
21563;DHT22;10942;47.894;11.424;2023-01-15T18:29:58;3.10;99.90
21563;DHT22;10942;47.894;11.424;2023-01-15T18:32:28;3.10;99.90
21563;DHT22;10942;47.894;11.424;2023-01-15T18:34:55;3.10;99.90
21563;DHT22;10942;47.894;11.424;2023-01-15T18:37:21;3.10;99.90
21563;DHT22;10942;47.894;11.424;2023-01-15T18:39:47;3.10;99.90
21563;DHT22;10942;47.894;11.424;2023-01-15T18:42:13;3.10;99.90
21563;DHT22;10942;47.894;11.424;2023-01-15T18:44:38;3.20;99.90
21563;DHT22;10942;47.894;11.424;2023-01-15T18:47:24;3.10;99.90
21563;DHT22;10942;47.894;11.424;2023-01-15T18:49:51;3.10;99.90